Aviation Digital Data Service (ADDS)

Output produced by METARs form (1403 UTC 08 May 2021)
found at http://aviationweather.gov/metar/data/
 
KBTR 081120Z 0812/0912 VRB03KT P6SM FEW250 
     FM081800 16011KT P6SM FEW250 
     FM091000 VRB04KT P6SM FEW030